• Join FlightAware (Why Join?)
  • Login
  • US Flag 
03:15PM EDT


 

Airport Tracker/Info


-or-


 

Live Flight TrackerFlight Track Log ✈ JZA7807 ✈ 23-Aug-2013 ✈ CYYZ - CYSB

Flight Track Log - Related Links

Times and Time Zones

All times are in EDT time to prevent confusion due to time zone crossing. See the JZA7807 flight status page for this flight to view local times or setup timezone preferences in your user account.

Time Position Orientation Groundspeed Altitude Reporting Facility
EDT Latitude Longitude Course Direction KTS MPH feet Rate Location/Type
10:29AM 43.6833 -79.6333 North 110 127 1,600  Level Toronto Center
10:30AM 43.7167 -79.6333 360° North 140 161 2,500 780 Climbing Toronto Center
10:31AM 43.7667 -79.6500 346° North 160 184 3,200 720 Climbing Toronto Center
10:32AM 43.8167 -79.6500 360° North 170 196 4,000 540 Climbing Toronto Center
10:33AM 43.9959 -79.6833 North  Level FlightAware Approximate
10:33AM 43.8667 -79.6500 360° North 190 219 4,300  Level Toronto Center
10:34AM 44.0619 -79.6988 350° North  Level FlightAware Approximate
10:34AM 43.9167 -79.6833 334° Northwest 180 207 5,400  Level Toronto Center
10:35AM 44.1287 -79.7000 North  Level FlightAware Approximate
10:35AM 43.9667 -79.6833 360° North 180 207 6,300  Level Toronto Center
10:36AM 44.0167 -79.7000 347° North 170 196 7,200 840 Climbing Toronto Center
10:37AM 44.0500 -79.7000 360° North 180 207 8,000 840 Climbing Toronto Center
10:38AM 44.1000 -79.7333 334° Northwest 180 207 8,900 840 Climbing Toronto Center
10:39AM 44.1500 -79.7500 347° North 180 207 9,700 780 Climbing Toronto Center
10:40AM 44.2000 -79.7667 347° North 180 207 10,500 900 Climbing Toronto Center
10:41AM 44.2500 -79.8000 334° Northwest 180 207 11,500 900 Climbing Toronto Center
10:42AM 44.3000 -79.8000 360° North 180 207 12,300 900 Climbing Toronto Center
10:43AM 44.3500 -79.8167 347° North 180 207 13,300 840 Climbing Toronto Center
10:44AM 44.3833 -79.8500 324° Northwest 170 196 14,000 300 Climbing Toronto Center
10:45AM 44.4500 -79.8667 350° North 190 219 14,000  Level Toronto Center
10:46AM 44.5000 -79.8833 347° North 210 242 14,000  Level Toronto Center
10:47AM 44.5500 -79.9167 335° Northwest 220 253 14,000  Level Toronto Center
10:48AM 44.6167 -79.9333 350° North 220 253 14,000  Level Toronto Center
10:49AM 44.6667 -79.9667 335° Northwest 220 253 14,000  Level Toronto Center
10:50AM 44.7333 -79.9833 350° North 220 253 14,000  Level Toronto Center
10:51AM 44.8000 -80.0167 340° North 220 253 14,000  Level Toronto Center
10:52AM 44.8500 -80.0333 347° North 220 253 14,000  Level Toronto Center
10:53AM 44.9167 -80.0500 350° North 220 253 14,000  Level Toronto Center
10:54AM 44.9667 -80.0833 335° Northwest 220 253 14,000  Level Toronto Center
10:55AM 45.0333 -80.1000 350° North 220 253 14,000  Level Toronto Center
10:56AM 45.0833 -80.1333 335° Northwest 220 253 14,000  Level Toronto Center
10:57AM 45.1500 -80.1500 350° North 220 253 14,100  Climbing Toronto Center
10:58AM 45.2000 -80.1833 335° Northwest 220 253 14,100 -60 Level Toronto Center
10:59AM 45.2667 -80.2000 350° North 230 265 14,000 -60 Descending Toronto Center
11:00AM 45.3333 -80.2333 341° North 230 265 14,000  Level Toronto Center
11:01AM 45.3833 -80.2500 347° North 230 265 14,000  Level Toronto Center
11:02AM 45.4500 -80.2667 350° North 230 265 14,000  Level Toronto Center
11:03AM 45.5167 -80.3000 341° North 230 265 14,000  Level Toronto Center
11:04AM 45.5667 -80.3167 347° North 230 265 14,000  Level Toronto Center
11:05AM 45.6333 -80.3667 332° Northwest 240 276 14,000  Level Toronto Center
11:06AM 45.7000 -80.4167 332° Northwest 230 265 14,000  Level Toronto Center
11:07AM 45.7667 -80.4500 341° North 240 276 14,000  Level Toronto Center
11:08AM 45.8167 -80.5000 325° Northwest 240 276 14,000  Level Toronto Center
11:09AM 45.8833 -80.5167 350° North 240 276 14,000  Level Toronto Center
11:10AM 45.9333 -80.5667 325° Northwest 240 276 14,000  Level Toronto Center
11:11AM 46.0000 -80.6000 341° North 240 276 14,000 -420 Level Toronto Center
11:12AM 46.0667 -80.6333 341° North 240 276 13,200 -1,140 Descending Toronto Center
11:13AM 46.1333 -80.6833 333° Northwest 270 311 11,800 -1,500 Descending Toronto Center
11:14AM 46.2000 -80.7333 333° Northwest 270 311 10,200 -1,500 Descending Toronto Center
11:15AM 46.2667 -80.7667 341° North 260 299 8,900 -1,380 Descending Toronto Center
11:16AM 46.3167 -80.8167 325° Northwest 230 265 7,500 -1,260 Descending Toronto Center
11:17AM 46.3833 -80.8333 350° North 220 253 6,400 -1,200 Descending Toronto Center
11:18AM 46.4333 -80.8833 325° Northwest 220 253 5,200 -1,140 Descending Toronto Center
11:19AM 46.4833 -80.8833 360° North 190 219 4,200 -1,020 Descending Toronto Center
11:20AM 46.5333 -80.8667 13° North 180 207 3,200 -1,020 Descending Toronto Center
11:21AM 46.5667 -80.8167 46° Northeast 170 196 2,200 -780 Descending Toronto Center
11:22AM 46.6000 -80.8000 19° North 150 173 1,700 -540 Descending Toronto Center